Time;durP1;ratioP1;P1;durP2;ratioP2;P2;SDS_P1;SDS_P2;PMS_P1;PMS_P2;Temp;Humidity;BMP_temperature;BMP_pressure;BME280_temperature;BME280_humidity;BME280_pressure;Samples;Min_cycle;Max_cycle;Signal;HPM_P1;HPM_P2
2021/12/17 00:02:20;;;;;;;5.93;2.58;;;;;;;20.40;50.24;98591.97;10545600;28;20036;-53
2021/12/17 00:07:15;;;;;;;4.68;2.53;;;;;;;20.37;50.29;98573.59;10514076;28;20648;-52
2021/12/17 00:12:35;;;;;;;3.50;2.58;;;;;;;20.35;50.31;98566.56;10506240;28;20048;-53
2021/12/17 00:18:00;;;;;;;3.85;2.35;;;;;;;20.35;50.28;98552.22;10534600;28;20434;-54
2021/12/17 00:51:56;;;;;;;5.20;2.80;;;;;;;20.25;50.10;98569.38;10516852;28;20683;-53
2021/12/17 00:57:19;;;;;;;5.22;2.33;;;;;;;20.26;50.09;98581.81;10536404;28;20047;-54
2021/12/17 01:02:39;;;;;;;3.00;2.13;;;;;;;20.23;50.06;98568.84;10505479;28;20058;-53
2021/12/17 01:08:01;;;;;;;3.25;2.13;;;;;;;20.21;50.01;98568.34;10529226;28;20048;-53
2021/12/17 01:13:22;;;;;;;4.45;2.22;;;;;;;20.19;50.06;98573.22;10492956;28;20048;-52
2021/12/17 01:25:06;;;;;;;4.95;2.40;;;;;;;20.15;49.98;98567.56;10447582;28;1132891;-53
2021/12/17 01:36:17;;;;;;;2.72;1.85;;;;;;;20.12;49.90;98578.16;10478116;28;20052;-53
2021/12/17 01:47:09;;;;;;;2.70;2.00;;;;;;;20.09;49.82;98589.53;10487161;28;20392;-53
2021/12/17 02:03:46;;;;;;;3.35;2.20;;;;;;;20.04;49.82;98584.97;10495887;28;20670;-53
2021/12/17 02:20:47;;;;;;;2.67;1.90;;;;;;;20.01;49.57;98569.31;10484795;28;20048;-53
2021/12/17 02:31:56;;;;;;;2.58;2.00;;;;;;;19.97;49.69;98581.00;10488973;28;20052;-52
2021/12/17 02:37:20;;;;;;;2.30;1.80;;;;;;;19.95;49.58;98573.97;10512314;28;20166;-53
2021/12/17 02:48:44;;;;;;;2.28;1.80;;;;;;;19.93;49.53;98576.16;10456303;28;20060;-53
2021/12/17 02:54:03;;;;;;;2.80;1.90;;;;;;;19.90;49.47;98571.31;10489080;28;20040;-53
2021/12/17 02:59:24;;;;;;;3.15;1.77;;;;;;;19.89;49.57;98572.38;10516301;28;20492;-53
2021/12/17 03:04:43;;;;;;;2.83;1.88;;;;;;;19.88;49.49;98562.66;10504240;28;20043;-54
2021/12/17 03:10:08;;;;;;;3.08;1.70;;;;;;;19.87;49.43;98571.06;10496353;28;20052;-53
2021/12/17 03:15:37;;;;;;;2.38;1.58;;;;;;;19.85;49.34;98576.75;10495525;28;20048;-53
2021/12/17 03:26:36;;;;;;;2.33;1.60;;;;;;;19.82;49.21;98577.31;10517212;28;20044;-52
2021/12/17 03:31:58;;;;;;;2.33;1.75;;;;;;;19.81;49.16;98575.69;10495394;28;20048;-54
2021/12/17 03:37:18;;;;;;;1.90;1.40;;;;;;;19.79;49.05;98577.88;10503680;28;20036;-54
2021/12/17 03:42:47;;;;;;;1.95;1.65;;;;;;;19.77;49.04;98565.75;10485536;28;20110;-53
2021/12/17 03:48:08;;;;;;;2.88;1.60;;;;;;;19.77;49.19;98584.66;10497767;28;20041;-53
2021/12/17 03:53:28;;;;;;;1.73;1.45;;;;;;;19.74;49.11;98583.34;10514657;28;20052;-54
2021/12/17 03:58:50;;;;;;;1.70;1.40;;;;;;;19.73;49.11;98570.91;10502748;28;20060;-53
2021/12/17 04:04:10;;;;;;;2.65;1.70;;;;;;;19.71;48.94;98568.47;10487250;28;20048;-53
2021/12/17 04:09:31;;;;;;;1.88;1.50;;;;;;;19.69;49.02;98564.41;10488267;28;20056;-53
2021/12/17 04:14:58;;;;;;;2.47;1.88;;;;;;;19.68;48.96;98568.19;10482404;28;20131;-53
2021/12/17 04:20:17;;;;;;;2.35;1.50;;;;;;;19.68;49.03;98565.50;10516546;28;20655;-53
2021/12/17 04:25:38;;;;;;;3.22;1.60;;;;;;;19.66;49.03;98559.56;10502726;28;20383;-53
2021/12/17 04:30:58;;;;;;;1.88;1.33;;;;;;;19.65;49.04;98542.53;10501132;28;20306;-53
2021/12/17 04:36:24;;;;;;;1.60;1.50;;;;;;;19.63;48.87;98538.50;10500599;28;20120;-53
2021/12/17 04:41:54;;;;;;;1.60;1.50;;;;;;;19.60;48.80;98526.38;10506399;28;20045;-53
2021/12/17 04:58:11;;;;;;;1.75;1.30;;;;;;;19.56;48.75;98501.78;10493244;28;20052;-53
2021/12/17 05:03:31;;;;;;;2.50;1.45;;;;;;;19.54;48.83;98495.88;10496369;28;20060;-53
2021/12/17 05:08:56;;;;;;;2.47;1.60;;;;;;;19.54;48.77;98503.97;10507981;28;20075;-53
2021/12/17 05:19:57;;;;;;;1.80;1.40;;;;;;;19.53;48.73;98507.75;10492273;28;20727;-53
2021/12/17 05:25:17;;;;;;;1.30;1.20;;;;;;;19.51;48.66;98515.34;10489591;28;20499;-54
2021/12/17 05:30:40;;;;;;;1.45;1.30;;;;;;;19.51;48.65;98514.53;10498881;28;20113;-53
2021/12/17 05:36:00;;;;;;;1.40;1.25;;;;;;;19.50;48.63;98527.25;10510818;28;20044;-54
2021/12/17 05:41:19;;;;;;;1.33;1.15;;;;;;;19.51;48.63;98514.53;10518765;28;20090;-53
2021/12/17 05:47:11;;;;;;;1.38;1.20;;;;;;;19.51;48.63;98517.25;10489686;28;20048;-52
2021/12/17 05:52:32;;;;;;;1.52;1.33;;;;;;;19.51;48.60;98519.94;10492747;28;20106;-54
2021/12/17 05:57:52;;;;;;;1.67;1.33;;;;;;;19.52;48.54;98506.16;10506212;28;20047;-54
2021/12/17 06:03:13;;;;;;;2.65;1.20;;;;;;;19.53;48.65;98510.44;10510771;28;20032;-54
2021/12/17 06:08:46;;;;;;;1.65;1.30;;;;;;;19.55;48.89;98518.28;10512616;28;20055;-55
2021/12/17 06:14:06;;;;;;;3.05;1.30;;;;;;;19.57;48.70;98518.81;10480536;28;20052;-56
2021/12/17 06:19:29;;;;;;;2.70;1.40;;;;;;;19.61;49.17;98516.34;10506574;28;20043;-54
2021/12/17 06:24:49;;;;;;;2.03;1.40;;;;;;;19.64;49.27;98515.78;10492527;28;20662;-52
2021/12/17 06:30:12;;;;;;;2.35;1.25;;;;;;;19.67;49.89;98510.63;10493909;28;20058;-53
2021/12/17 06:35:33;;;;;;;4.32;1.10;;;;;;;19.75;50.51;98512.72;10512501;28;20610;-53
2021/12/17 06:40:53;;;;;;;1.30;1.20;;;;;;;19.80;50.71;98513.78;10514029;28;20101;-53
2021/12/17 06:46:20;;;;;;;3.17;1.10;;;;;;;19.84;50.64;98512.13;10498334;28;20044;-54
2021/12/17 07:42:32;;;;;;;2.95;1.85;;;;;;;19.95;45.76;98541.53;10505097;28;20568;-54
2021/12/17 07:47:52;;;;;;;9.50;4.30;;;;;;;19.95;45.04;98537.97;10536874;28;20076;-54
2021/12/17 07:53:11;;;;;;;4.93;3.00;;;;;;;19.84;43.11;98544.59;10528637;28;20067;-54
2021/12/17 07:58:41;;;;;;;6.10;4.35;;;;;;;19.83;39.75;98543.75;10518261;28;20373;-54
2021/12/17 08:04:03;;;;;;;7.70;5.25;;;;;;;19.69;35.47;98543.59;10522627;28;20445;-54
2021/12/17 08:09:42;;;;;;;8.70;5.93;;;;;;;19.33;36.20;98541.13;10499873;28;20052;-54
2021/12/17 08:15:04;;;;;;;5.53;4.00;;;;;;;19.40;37.92;98550.81;10518253;28;20745;-54
2021/12/17 08:31:36;;;;;;;6.68;2.85;;;;;;;19.73;42.01;98541.94;10490893;28;20052;-55
2021/12/17 08:36:57;;;;;;;6.55;2.92;;;;;;;19.77;42.80;98539.50;10505167;28;20041;-55
2021/12/17 08:42:17;;;;;;;4.80;3.00;;;;;;;19.79;42.65;98556.25;10508160;28;20047;-55
2021/12/17 08:47:37;;;;;;;8.07;6.07;;;;;;;19.62;36.15;98561.22;10482541;28;20064;-54
2021/12/17 08:52:57;;;;;;;9.93;6.05;;;;;;;19.33;34.49;98546.53;10483216;28;20491;-54
2021/12/17 08:58:17;;;;;;;11.50;4.97;;;;;;;19.24;36.28;98536.59;10514203;28;20052;-53
2021/12/17 09:03:40;;;;;;;8.02;5.07;;;;;;;19.38;37.09;98540.28;10486440;28;20056;-54
2021/12/17 09:09:17;;;;;;;11.45;5.13;;;;;;;19.40;35.03;98529.22;10501339;28;20045;-53
2021/12/17 09:14:36;;;;;;;7.25;4.40;;;;;;;19.22;36.15;98550.38;10511391;28;20651;-52
2021/12/17 09:20:28;;;;;;;6.93;4.35;;;;;;;19.36;39.36;98567.59;10473333;28;20106;-53
2021/12/17 09:25:48;;;;;;;4.68;3.58;;;;;;;19.44;39.76;98558.09;10488857;28;20447;-53
2021/12/17 09:31:12;;;;;;;4.20;3.30;;;;;;;19.53;39.89;98547.50;10473461;28;20122;-54
2021/12/17 09:36:33;;;;;;;5.70;3.15;;;;;;;19.59;40.22;98545.56;10501637;28;20036;-52
2021/12/17 09:41:53;;;;;;;5.18;3.20;;;;;;;19.63;40.59;98549.31;10500998;28;20036;-54
2021/12/17 09:47:13;;;;;;;4.03;2.85;;;;;;;19.67;40.90;98539.56;10486380;28;20518;-53
2021/12/17 09:52:33;;;;;;;5.35;2.88;;;;;;;19.67;41.10;98545.75;10504031;28;20380;-54
2021/12/17 09:57:53;;;;;;;6.35;3.08;;;;;;;19.68;41.41;98549.25;10491205;28;20142;-54
2021/12/17 10:03:13;;;;;;;5.13;3.05;;;;;;;19.67;41.54;98550.38;10491576;28;20062;-54
2021/12/17 10:08:33;;;;;;;4.00;3.03;;;;;;;19.66;41.90;98540.63;10490730;28;20051;-54
2021/12/17 10:13:52;;;;;;;4.78;2.80;;;;;;;19.65;42.08;98536.31;10477299;28;20059;-53
2021/12/17 10:19:11;;;;;;;3.38;2.80;;;;;;;19.62;42.26;98537.72;10490888;28;20044;-54
2021/12/17 10:24:31;;;;;;;3.60;2.55;;;;;;;19.62;42.37;98526.91;10490527;28;20056;-54
2021/12/17 10:29:51;;;;;;;3.33;2.78;;;;;;;19.63;42.69;98522.28;10490319;28;20052;-53
2021/12/17 10:35:17;;;;;;;3.75;3.10;;;;;;;19.61;42.80;98516.34;10489681;28;20049;-53
2021/12/17 10:46:29;;;;;;;3.58;2.67;;;;;;;19.61;43.09;98497.44;10490138;28;20064;-54
2021/12/17 10:51:56;;;;;;;;;;;;;;;19.59;43.19;98500.41;10490172;28;20048;-53
2021/12/17 10:57:15;;;;;;;3.10;2.50;;;;;;;19.59;43.25;98515.84;10502876;28;20403;-53
2021/12/17 11:02:37;;;;;;;4.07;2.50;;;;;;;19.58;43.49;98520.41;10502969;28;20503;-52
2021/12/17 11:07:56;;;;;;;2.65;2.15;;;;;;;19.56;43.65;98512.59;10489266;28;20044;-53
2021/12/17 11:13:16;;;;;;;3.08;2.60;;;;;;;19.56;43.66;98511.78;10493252;28;20503;-54
2021/12/17 11:18:36;;;;;;;2.58;2.35;;;;;;;19.55;43.86;98521.00;10474423;28;20045;-54
2021/12/17 11:23:56;;;;;;;2.88;2.58;;;;;;;19.54;43.86;98514.78;10502412;28;20423;-54
2021/12/17 11:29:17;;;;;;;2.83;2.40;;;;;;;19.52;44.06;98516.97;10456158;28;20205;-53
2021/12/17 11:34:38;;;;;;;2.40;2.00;;;;;;;19.52;44.08;98506.16;10455283;28;20075;-54
2021/12/17 11:40:02;;;;;;;2.80;2.10;;;;;;;19.51;44.21;98496.41;10455346;28;20060;-54
2021/12/17 11:45:26;;;;;;;2.42;2.15;;;;;;;19.50;44.29;98483.19;10456086;28;20053;-54
2021/12/17 11:50:47;;;;;;;2.50;2.30;;;;;;;19.50;44.23;98485.88;10455712;28;20648;-53
2021/12/17 11:56:07;;;;;;;2.97;2.30;;;;;;;19.48;44.39;98491.59;10481496;28;20048;-53
2021/12/17 12:01:49;;;;;;;2.25;2.05;;;;;;;19.46;44.49;98501.06;10454109;28;20057;-54
2021/12/17 12:07:24;;;;;;;2.53;2.15;;;;;;;19.45;44.47;98494.84;10467995;28;20053;-53
2021/12/17 12:12:46;;;;;;;2.38;2.17;;;;;;;19.44;44.61;98495.91;10454837;28;20053;-53
2021/12/17 12:18:13;;;;;;;3.47;2.42;;;;;;;19.43;44.38;98497.03;10467567;28;20041;-54
2021/12/17 12:23:33;;;;;;;2.10;1.90;;;;;;;19.42;44.67;98490.00;10467571;28;20036;-53
2021/12/17 12:28:59;;;;;;;2.40;2.20;;;;;;;19.42;44.69;98500.81;10494026;28;20411;-53
2021/12/17 12:34:20;;;;;;;2.70;2.10;;;;;;;19.41;44.71;98501.09;10495426;28;20431;-53
2021/12/17 12:40:06;;;;;;;3.30;2.30;;;;;;;19.39;44.68;98501.38;10507888;28;20045;-52
2021/12/17 12:45:31;;;;;;;2.33;2.10;;;;;;;19.39;44.76;98495.97;10494738;28;20048;-53
2021/12/17 12:51:20;;;;;;;2.28;1.90;;;;;;;19.37;44.85;98495.44;10507903;28;20048;-54
2021/12/17 12:56:40;;;;;;;2.33;2.00;;;;;;;19.35;44.90;98495.72;10493961;28;20412;-53
2021/12/17 13:01:59;;;;;;;1.95;1.80;;;;;;;19.35;44.76;98484.13;10507882;28;20091;-53
2021/12/17 13:07:40;;;;;;;1.92;1.83;;;;;;;19.33;44.83;98472.78;10493575;28;20056;-53
2021/12/17 13:13:14;;;;;;;2.40;2.20;;;;;;;19.33;44.97;98472.78;10493586;28;20056;-53
2021/12/17 13:24:23;;;;;;;2.30;1.90;;;;;;;19.31;44.93;98470.34;10492899;28;20052;-53
2021/12/17 13:29:44;;;;;;;1.73;1.60;;;;;;;19.30;44.90;98466.03;10493035;28;20048;-54
2021/12/17 13:35:04;;;;;;;1.80;1.70;;;;;;;19.28;44.96;98470.91;10492591;28;20511;-52
2021/12/17 13:40:25;;;;;;;2.28;2.08;;;;;;;19.27;45.15;98484.72;10505863;28;20490;-53
2021/12/17 13:45:47;;;;;;;2.78;1.80;;;;;;;19.27;44.98;98485.53;10492358;28;20054;-53
2021/12/17 13:51:12;;;;;;;1.90;1.70;;;;;;;19.26;44.97;98496.59;10490325;28;20056;-53
2021/12/17 13:56:32;;;;;;;1.98;1.70;;;;;;;19.25;45.13;98500.38;10491733;28;20725;-53
2021/12/17 14:01:51;;;;;;;2.20;2.00;;;;;;;19.23;45.02;98497.97;10504980;28;20036;-53
2021/12/17 14:07:11;;;;;;;1.80;1.70;;;;;;;19.23;45.22;98491.75;10491515;28;20450;-53
2021/12/17 14:12:33;;;;;;;2.20;1.98;;;;;;;19.21;45.06;98496.63;10490913;28;20363;-54
2021/12/17 14:17:55;;;;;;;1.90;1.60;;;;;;;19.20;45.02;98492.31;10490213;28;20053;-53
2021/12/17 14:23:26;;;;;;;2.75;1.70;;;;;;;19.20;45.09;98519.34;10490684;28;20094;-53
2021/12/17 14:28:46;;;;;;;2.13;1.92;;;;;;;19.18;45.12;98511.50;10489735;28;20049;-54
2021/12/17 14:34:05;;;;;;;1.80;1.70;;;;;;;19.16;45.12;98502.88;10490449;28;20052;-53
2021/12/17 14:39:33;;;;;;;2.30;1.80;;;;;;;19.15;45.14;98504.78;10489685;28;20051;-53
2021/12/17 14:44:59;;;;;;;1.63;1.50;;;;;;;19.15;45.20;98514.75;10490064;28;20053;-52
2021/12/17 15:02:01;;;;;;;1.77;1.67;;;;;;;19.11;45.20;98502.91;10488994;28;20063;-53
2021/12/17 15:07:20;;;;;;;2.45;1.50;;;;;;;19.10;45.20;98504.00;10489482;28;20045;-53
2021/12/17 15:12:39;;;;;;;1.70;1.60;;;;;;;19.10;45.21;98499.41;10494604;28;20037;-53
2021/12/17 15:17:59;;;;;;;1.75;1.65;;;;;;;19.09;45.24;98499.69;10489310;28;20048;-53
2021/12/17 15:23:20;;;;;;;1.88;1.67;;;;;;;19.07;45.29;98494.56;10489189;28;20044;-54
2021/12/17 15:28:40;;;;;;;1.70;1.60;;;;;;;19.06;45.29;98492.16;10489560;28;20070;-53
2021/12/17 15:33:59;;;;;;;1.70;1.60;;;;;;;19.06;45.16;98497.56;10489356;28;20400;-53
2021/12/17 15:39:19;;;;;;;1.60;1.50;;;;;;;19.04;45.24;98511.31;10502220;28;20040;-53
2021/12/17 15:44:38;;;;;;;1.90;1.42;;;;;;;19.02;45.27;98510.81;10488942;28;20060;-53
2021/12/17 15:49:58;;;;;;;1.50;1.40;;;;;;;19.01;45.19;98511.06;10502430;28;20051;-54
2021/12/17 15:55:20;;;;;;;1.60;1.50;;;;;;;19.00;45.34;98515.69;10488891;28;20478;-53
2021/12/17 16:00:39;;;;;;;2.00;1.80;;;;;;;18.99;45.22;98518.66;10488278;28;20060;-52
2021/12/17 16:06:00;;;;;;;1.40;1.30;;;;;;;18.97;45.33;98516.22;10501816;28;20044;-54
2021/12/17 16:22:36;;;;;;;1.63;1.40;;;;;;;18.93;45.25;98543.00;10509206;28;20067;-53
2021/12/17 16:27:56;;;;;;;1.60;1.50;;;;;;;18.93;45.37;98536.75;10482940;28;20063;-53
2021/12/17 16:33:16;;;;;;;1.38;1.27;;;;;;;18.92;45.45;98521.66;10508764;28;20059;-52
2021/12/17 16:38:37;;;;;;;1.52;1.42;;;;;;;18.91;45.44;98525.44;10508400;28;20043;-53
2021/12/17 16:44:06;;;;;;;1.58;1.48;;;;;;;18.90;45.50;98526.53;10508290;28;20044;-53
2021/12/17 16:49:28;;;;;;;1.58;1.48;;;;;;;18.89;45.33;98535.72;10494691;28;20056;-53
2021/12/17 16:54:47;;;;;;;1.50;1.40;;;;;;;18.88;45.47;98539.50;10494058;28;20048;-54
2021/12/17 17:00:07;;;;;;;1.55;1.45;;;;;;;18.87;45.44;98527.06;10507506;28;20056;-53
2021/12/17 17:05:27;;;;;;;1.77;1.25;;;;;;;18.87;45.46;98537.88;10494086;28;20754;-53
2021/12/17 17:10:53;;;;;;;1.42;1.30;;;;;;;18.84;45.43;98522.25;10478540;28;20045;-54
2021/12/17 17:16:17;;;;;;;1.40;1.30;;;;;;;18.82;45.54;98527.09;10492680;28;20051;-53
2021/12/17 17:21:38;;;;;;;1.35;1.20;;;;;;;18.81;45.35;98512.00;10507006;28;20037;-53
2021/12/17 17:26:58;;;;;;;1.70;1.60;;;;;;;18.80;45.45;98524.69;10498102;28;20057;-54
2021/12/17 17:32:18;;;;;;;1.38;1.27;;;;;;;18.78;45.54;98530.34;10506631;28;20032;-53
2021/12/17 17:37:38;;;;;;;1.33;1.15;;;;;;;18.78;45.48;98538.44;10492927;28;20052;-53
2021/12/17 17:42:58;;;;;;;1.30;1.20;;;;;;;18.77;45.56;98536.81;10492629;28;20487;-52
2021/12/17 17:48:17;;;;;;;1.30;1.20;;;;;;;18.75;45.62;98541.66;10492474;28;20044;-53
2021/12/17 17:53:37;;;;;;;1.13;1.02;;;;;;;18.75;45.54;98548.97;10505543;28;20037;-53
2021/12/17 17:58:56;;;;;;;1.52;1.42;;;;;;;18.73;45.59;98554.63;10505347;28;20048;-53
2021/12/17 18:04:16;;;;;;;1.23;1.13;;;;;;;18.73;45.57;98564.63;10491595;28;20052;-54
2021/12/17 18:09:42;;;;;;;1.40;1.30;;;;;;;18.72;45.65;98561.13;10490433;28;20053;-52
2021/12/17 18:15:03;;;;;;;1.48;1.38;;;;;;;18.72;45.64;98565.75;10491102;28;20052;-53
2021/12/17 18:20:24;;;;;;;1.30;1.20;;;;;;;18.69;45.58;98568.97;10490868;28;20468;-53
2021/12/17 18:25:44;;;;;;;1.30;1.20;;;;;;;18.69;45.48;98567.06;10499335;28;20044;-53
2021/12/17 18:31:04;;;;;;;1.17;1.08;;;;;;;18.67;45.48;98574.66;10490669;28;20063;-54
2021/12/17 18:36:24;;;;;;;1.40;1.30;;;;;;;18.68;45.56;98581.69;10503010;28;20053;-53
2021/12/17 18:41:47;;;;;;;1.50;1.40;;;;;;;18.66;45.62;98575.75;10489779;28;20060;-53
2021/12/17 18:47:06;;;;;;;1.40;1.30;;;;;;;18.65;45.59;98573.31;10489987;28;20045;-53
2021/12/17 18:52:26;;;;;;;1.10;1.05;;;;;;;18.64;45.52;98567.13;10489899;28;20541;-53
2021/12/17 18:57:46;;;;;;;1.30;1.20;;;;;;;18.63;45.69;98570.88;10489710;28;20488;-53
2021/12/17 19:03:06;;;;;;;1.25;1.15;;;;;;;18.63;45.71;98591.69;10489740;28;20500;-53
2021/12/17 19:08:27;;;;;;;1.25;1.15;;;;;;;18.61;45.46;98589.25;10489463;28;20049;-53
2021/12/17 19:13:47;;;;;;;1.40;1.30;;;;;;;18.60;45.74;98587.63;10488846;28;20048;-53
2021/12/17 19:19:11;;;;;;;1.27;1.17;;;;;;;18.58;45.48;98582.50;10489210;28;20527;-53
2021/12/17 19:24:30;;;;;;;1.20;1.10;;;;;;;18.58;45.57;98568.19;10500915;28;20105;-50
2021/12/17 19:29:50;;;;;;;1.20;1.10;;;;;;;18.56;45.69;98567.66;10489127;28;20060;-53
2021/12/17 19:35:12;;;;;;;1.20;1.10;;;;;;;18.57;45.47;98575.47;10488764;28;20045;-53
2021/12/17 19:40:31;;;;;;;1.55;1.10;;;;;;;18.55;45.61;98566.06;10488725;28;20579;-53
2021/12/17 19:45:54;;;;;;;1.40;1.30;;;;;;;18.54;45.70;98567.94;10488868;28;20056;-53
2021/12/17 19:51:13;;;;;;;1.27;1.08;;;;;;;18.53;45.59;98573.63;10496341;28;20056;-54
2021/12/17 19:56:34;;;;;;;1.20;1.10;;;;;;;18.53;45.54;98568.22;10496375;28;20053;-53
2021/12/17 20:01:55;;;;;;;0.98;0.98;;;;;;;18.51;45.66;98570.38;10496334;28;20446;-53
2021/12/17 20:07:15;;;;;;;1.00;1.00;;;;;;;18.51;45.64;98581.19;10496382;28;20106;-53
2021/12/17 20:12:35;;;;;;;1.17;1.08;;;;;;;18.50;45.61;98582.25;10496094;28;20056;-53
2021/12/17 20:17:55;;;;;;;1.30;1.20;;;;;;;18.48;45.59;98573.63;10495870;28;20056;-53
2021/12/17 20:23:16;;;;;;;1.10;1.00;;;;;;;18.46;45.57;98592.78;10495063;28;20056;-53
2021/12/17 20:28:39;;;;;;;1.20;1.10;;;;;;;18.47;45.60;98597.09;10495060;28;20059;-53
2021/12/17 20:33:58;;;;;;;1.13;1.05;;;;;;;18.46;45.63;98600.06;10495239;28;20114;-53
2021/12/17 20:39:18;;;;;;;1.17;1.08;;;;;;;18.47;45.63;98607.09;10495104;28;20049;-54
2021/12/17 20:44:37;;;;;;;1.15;1.05;;;;;;;18.45;45.56;98601.16;10508195;28;20032;-52
2021/12/17 20:49:56;;;;;;;1.30;1.20;;;;;;;18.43;45.63;98604.13;10494972;28;20102;-54
2021/12/17 20:55:17;;;;;;;1.10;1.00;;;;;;;18.42;45.65;98604.41;10494751;28;20060;-54
2021/12/17 21:00:39;;;;;;;1.10;1.00;;;;;;;18.41;45.76;98616.28;10521985;28;20169;-53
2021/12/17 21:05:59;;;;;;;1.20;1.10;;;;;;;18.40;45.69;98628.16;10535949;28;20049;-51
2021/12/17 21:11:19;;;;;;;1.00;1.00;;;;;;;18.38;45.77;98628.41;10535761;28;20052;-53
2021/12/17 21:16:40;;;;;;;1.65;1.08;;;;;;;18.36;45.80;98623.28;10535520;28;20048;-53
2021/12/17 21:22:00;;;;;;;0.95;0.95;;;;;;;18.36;45.60;98634.06;10535246;28;20056;-53
2021/12/17 21:27:19;;;;;;;1.40;1.30;;;;;;;18.35;45.59;98629.78;10534734;28;20387;-53
2021/12/17 21:32:39;;;;;;;0.90;0.90;;;;;;;18.34;45.66;98632.75;10548623;28;20114;-54
2021/12/17 21:38:00;;;;;;;0.90;0.90;;;;;;;18.33;45.74;98625.75;10534637;28;20044;-53
2021/12/17 21:43:20;;;;;;;1.17;1.08;;;;;;;18.31;45.82;98631.41;10534892;28;20056;-53
2021/12/17 21:48:41;;;;;;;1.17;1.08;;;;;;;18.31;45.63;98636.00;10534273;28;20048;-53
2021/12/17 21:54:00;;;;;;;1.35;1.15;;;;;;;18.29;45.65;98630.88;10534053;28;20097;-52
2021/12/17 21:59:20;;;;;;;1.00;1.00;;;;;;;18.29;45.62;98620.06;10533149;28;20048;-54
2021/12/17 22:04:40;;;;;;;1.30;1.10;;;;;;;18.29;45.82;98619.28;10533078;28;20055;-53
2021/12/17 22:09:59;;;;;;;0.90;0.90;;;;;;;18.27;45.85;98611.44;10545557;28;20036;-53
2021/12/17 22:15:21;;;;;;;1.15;1.05;;;;;;;18.27;45.69;98610.63;10546944;28;20093;-53
2021/12/17 22:20:50;;;;;;;1.15;1.05;;;;;;;18.26;45.72;98609.00;10533045;28;20059;-53
2021/12/17 22:26:10;;;;;;;1.17;1.08;;;;;;;18.24;45.74;98606.56;10532489;28;20103;-53
2021/12/17 22:31:30;;;;;;;0.90;0.90;;;;;;;18.24;45.75;98600.38;10532325;28;20051;-54
2021/12/17 22:36:50;;;;;;;1.25;1.10;;;;;;;18.24;45.67;98611.19;10545892;28;20591;-52
2021/12/17 22:42:10;;;;;;;1.35;1.00;;;;;;;18.22;45.66;98608.75;10531460;28;20054;-53
2021/12/17 22:47:29;;;;;;;1.10;1.00;;;;;;;18.23;45.80;98620.31;10532151;28;20051;-53
2021/12/17 22:52:49;;;;;;;0.98;0.90;;;;;;;18.21;45.64;98628.72;10545248;28;20044;-53
2021/12/17 22:58:09;;;;;;;1.15;0.98;;;;;;;18.21;45.63;98628.72;10544830;28;20055;-53
2021/12/17 23:03:32;;;;;;;1.02;1.02;;;;;;;18.19;45.59;98636.28;10531807;28;20703;-53
2021/12/17 23:14:45;;;;;;;1.08;0.98;;;;;;;18.18;45.81;98626.56;10531090;28;20055;-53
2021/12/17 23:20:05;;;;;;;1.00;0.95;;;;;;;18.16;45.64;98626.00;10529922;28;20082;-53
2021/12/17 23:25:25;;;;;;;0.90;0.90;;;;;;;18.15;45.63;98616.28;10530575;28;20190;-53
2021/12/17 23:30:46;;;;;;;1.20;1.10;;;;;;;18.14;45.72;98626.28;10544417;28;20044;-53
2021/12/17 23:36:07;;;;;;;1.05;0.95;;;;;;;18.13;45.60;98626.53;10543987;28;20044;-53
2021/12/17 23:41:26;;;;;;;1.05;0.90;;;;;;;18.12;45.80;98622.25;10530562;28;20048;-53
2021/12/17 23:46:49;;;;;;;1.10;0.93;;;;;;;18.12;45.60;98633.03;10530636;28;20047;-53
2021/12/17 23:52:08;;;;;;;0.90;0.90;;;;;;;18.11;45.73;98636.78;10530206;28;20376;-53
2021/12/17 23:57:28;;;;;;;1.00;1.00;;;;;;;18.10;45.67;98638.69;10529601;28;20048;-53
